sensor_id;sensor_type;location;lat;lon;timestamp;temperature;humidity
64634;DHT22;51043;52.406;9.690;2024-02-15T00:01:43;11.40;99.90
64634;DHT22;51043;52.406;9.690;2024-02-15T00:04:13;11.40;99.90
64634;DHT22;51043;52.406;9.690;2024-02-15T00:06:41;11.40;99.90
64634;DHT22;51043;52.406;9.690;2024-02-15T00:09:09;11.40;99.90
64634;DHT22;51043;52.406;9.690;2024-02-15T00:11:37;11.40;99.90
64634;DHT22;51043;52.406;9.690;2024-02-15T00:14:06;11.40;99.90
64634;DHT22;51043;52.406;9.690;2024-02-15T00:16:36;11.50;99.90
64634;DHT22;51043;52.406;9.690;2024-02-15T00:19:04;11.50;99.90
64634;DHT22;51043;52.406;9.690;2024-02-15T00:21:34;11.50;99.90
64634;DHT22;51043;52.406;9.690;2024-02-15T00:24:03;11.50;99.90
64634;DHT22;51043;52.406;9.690;2024-02-15T00:26:32;11.50;99.90
64634;DHT22;51043;52.406;9.690;2024-02-15T00:29:00;11.50;99.90
64634;DHT22;51043;52.406;9.690;2024-02-15T00:31:28;11.50;99.90
64634;DHT22;51043;52.406;9.690;2024-02-15T00:33:57;11.50;99.90
64634;DHT22;51043;52.406;9.690;2024-02-15T00:36:26;11.50;99.90
64634;DHT22;51043;52.406;9.690;2024-02-15T00:38:54;11.50;99.90
64634;DHT22;51043;52.406;9.690;2024-02-15T00:41:23;11.50;99.90
64634;DHT22;51043;52.406;9.690;2024-02-15T00:43:52;11.50;99.90
64634;DHT22;51043;52.406;9.690;2024-02-15T00:46:20;11.50;99.90
64634;DHT22;51043;52.406;9.690;2024-02-15T00:48:48;11.50;99.90
64634;DHT22;51043;52.406;9.690;2024-02-15T00:51:21;11.50;99.90
64634;DHT22;51043;52.406;9.690;2024-02-15T00:53:49;11.50;99.90
64634;DHT22;51043;52.406;9.690;2024-02-15T00:56:19;11.50;99.90
64634;DHT22;51043;52.406;9.690;2024-02-15T00:58:49;11.50;99.90
64634;DHT22;51043;52.406;9.690;2024-02-15T01:01:17;11.50;99.90
64634;DHT22;51043;52.406;9.690;2024-02-15T01:03:46;11.50;99.90
64634;DHT22;51043;52.406;9.690;2024-02-15T01:06:14;11.50;99.90
64634;DHT22;51043;52.406;9.690;2024-02-15T01:08:43;11.40;99.90
64634;DHT22;51043;52.406;9.690;2024-02-15T01:11:12;11.40;99.90
64634;DHT22;51043;52.406;9.690;2024-02-15T01:13:40;11.50;99.90
64634;DHT22;51043;52.406;9.690;2024-02-15T01:16:08;11.50;99.90
64634;DHT22;51043;52.406;9.690;2024-02-15T01:18:36;11.40;99.90
64634;DHT22;51043;52.406;9.690;2024-02-15T01:21:05;11.50;99.90
64634;DHT22;51043;52.406;9.690;2024-02-15T01:23:34;11.40;99.90
64634;DHT22;51043;52.406;9.690;2024-02-15T01:26:05;11.40;99.90
64634;DHT22;51043;52.406;9.690;2024-02-15T01:28:34;11.50;99.90
64634;DHT22;51043;52.406;9.690;2024-02-15T01:31:10;11.50;99.90
64634;DHT22;51043;52.406;9.690;2024-02-15T01:33:39;11.40;99.90
64634;DHT22;51043;52.406;9.690;2024-02-15T01:36:08;11.40;99.90
64634;DHT22;51043;52.406;9.690;2024-02-15T01:38:37;11.40;99.90
64634;DHT22;51043;52.406;9.690;2024-02-15T01:41:06;11.50;99.90
64634;DHT22;51043;52.406;9.690;2024-02-15T01:43:35;11.40;99.90
64634;DHT22;51043;52.406;9.690;2024-02-15T01:46:07;11.40;99.90
64634;DHT22;51043;52.406;9.690;2024-02-15T01:48:37;11.40;99.90
64634;DHT22;51043;52.406;9.690;2024-02-15T01:51:07;11.40;99.90
64634;DHT22;51043;52.406;9.690;2024-02-15T01:53:37;11.40;99.90
64634;DHT22;51043;52.406;9.690;2024-02-15T01:56:07;11.50;99.90
64634;DHT22;51043;52.406;9.690;2024-02-15T01:58:35;11.50;99.90
64634;DHT22;51043;52.406;9.690;2024-02-15T02:01:04;11.50;99.90
64634;DHT22;51043;52.406;9.690;2024-02-15T02:03:34;11.50;99.90
64634;DHT22;51043;52.406;9.690;2024-02-15T02:06:03;11.50;99.90
64634;DHT22;51043;52.406;9.690;2024-02-15T02:08:32;11.40;99.90
64634;DHT22;51043;52.406;9.690;2024-02-15T02:11:01;11.50;99.90
64634;DHT22;51043;52.406;9.690;2024-02-15T02:13:32;11.50;99.90
64634;DHT22;51043;52.406;9.690;2024-02-15T02:16:00;11.50;99.90
64634;DHT22;51043;52.406;9.690;2024-02-15T02:18:29;11.50;99.90
64634;DHT22;51043;52.406;9.690;2024-02-15T02:21:01;11.50;99.90
64634;DHT22;51043;52.406;9.690;2024-02-15T02:23:32;11.60;99.90
64634;DHT22;51043;52.406;9.690;2024-02-15T02:26:02;11.60;99.90
64634;DHT22;51043;52.406;9.690;2024-02-15T02:28:31;11.60;99.90
64634;DHT22;51043;52.406;9.690;2024-02-15T02:30:59;11.50;99.90
64634;DHT22;51043;52.406;9.690;2024-02-15T02:33:28;11.50;99.90
64634;DHT22;51043;52.406;9.690;2024-02-15T02:35:56;11.60;99.90
64634;DHT22;51043;52.406;9.690;2024-02-15T02:38:24;11.60;99.90
64634;DHT22;51043;52.406;9.690;2024-02-15T02:40:55;11.60;99.90
64634;DHT22;51043;52.406;9.690;2024-02-15T02:43:25;11.60;99.90
64634;DHT22;51043;52.406;9.690;2024-02-15T02:45:54;11.60;99.90
64634;DHT22;51043;52.406;9.690;2024-02-15T02:48:22;11.60;99.90
64634;DHT22;51043;52.406;9.690;2024-02-15T02:50:50;11.60;99.90
64634;DHT22;51043;52.406;9.690;2024-02-15T02:53:20;11.60;99.90
64634;DHT22;51043;52.406;9.690;2024-02-15T02:55:48;11.60;99.90
64634;DHT22;51043;52.406;9.690;2024-02-15T02:58:16;11.60;99.90
64634;DHT22;51043;52.406;9.690;2024-02-15T03:00:46;11.60;99.90
64634;DHT22;51043;52.406;9.690;2024-02-15T03:03:14;11.70;99.90
64634;DHT22;51043;52.406;9.690;2024-02-15T03:05:42;11.60;99.90
64634;DHT22;51043;52.406;9.690;2024-02-15T03:08:11;11.60;99.90
64634;DHT22;51043;52.406;9.690;2024-02-15T03:10:39;11.60;99.90
64634;DHT22;51043;52.406;9.690;2024-02-15T03:13:08;11.60;99.90
64634;DHT22;51043;52.406;9.690;2024-02-15T03:15:36;11.60;99.90
64634;DHT22;51043;52.406;9.690;2024-02-15T03:18:06;11.70;99.90
64634;DHT22;51043;52.406;9.690;2024-02-15T03:20:37;11.70;99.90
64634;DHT22;51043;52.406;9.690;2024-02-15T03:23:05;11.70;99.90
64634;DHT22;51043;52.406;9.690;2024-02-15T03:25:34;11.70;99.90
64634;DHT22;51043;52.406;9.690;2024-02-15T03:28:02;11.80;99.90
64634;DHT22;51043;52.406;9.690;2024-02-15T03:30:31;11.70;99.90
64634;DHT22;51043;52.406;9.690;2024-02-15T03:33:00;11.70;99.90
64634;DHT22;51043;52.406;9.690;2024-02-15T03:35:34;11.70;99.90
64634;DHT22;51043;52.406;9.690;2024-02-15T03:38:02;11.70;99.90
64634;DHT22;51043;52.406;9.690;2024-02-15T03:40:30;11.70;99.90
64634;DHT22;51043;52.406;9.690;2024-02-15T03:42:59;11.70;99.90
64634;DHT22;51043;52.406;9.690;2024-02-15T03:45:27;11.70;99.90
64634;DHT22;51043;52.406;9.690;2024-02-15T03:47:55;11.70;99.90
64634;DHT22;51043;52.406;9.690;2024-02-15T03:50:24;11.80;99.90
64634;DHT22;51043;52.406;9.690;2024-02-15T03:52:55;11.80;99.90
64634;DHT22;51043;52.406;9.690;2024-02-15T03:55:25;11.80;99.90
64634;DHT22;51043;52.406;9.690;2024-02-15T03:57:54;11.70;99.90
64634;DHT22;51043;52.406;9.690;2024-02-15T04:00:24;11.70;99.90
64634;DHT22;51043;52.406;9.690;2024-02-15T04:02:53;11.80;99.90
64634;DHT22;51043;52.406;9.690;2024-02-15T04:05:23;11.70;99.90
64634;DHT22;51043;52.406;9.690;2024-02-15T04:07:51;11.70;99.90
64634;DHT22;51043;52.406;9.690;2024-02-15T04:10:22;11.70;99.90
64634;DHT22;51043;52.406;9.690;2024-02-15T04:12:50;11.70;99.90
64634;DHT22;51043;52.406;9.690;2024-02-15T04:15:19;11.80;99.90
64634;DHT22;51043;52.406;9.690;2024-02-15T04:17:47;11.80;99.90
64634;DHT22;51043;52.406;9.690;2024-02-15T04:20:20;11.70;99.90
64634;DHT22;51043;52.406;9.690;2024-02-15T04:22:48;11.70;99.90
64634;DHT22;51043;52.406;9.690;2024-02-15T04:25:17;11.80;99.90
64634;DHT22;51043;52.406;9.690;2024-02-15T04:27:48;11.80;99.90
64634;DHT22;51043;52.406;9.690;2024-02-15T04:30:16;11.80;99.90
64634;DHT22;51043;52.406;9.690;2024-02-15T04:32:45;11.80;99.90
64634;DHT22;51043;52.406;9.690;2024-02-15T04:35:12;11.70;99.90
64634;DHT22;51043;52.406;9.690;2024-02-15T04:37:41;11.80;99.90
64634;DHT22;51043;52.406;9.690;2024-02-15T04:40:09;11.80;99.90
64634;DHT22;51043;52.406;9.690;2024-02-15T04:42:38;11.70;99.90
64634;DHT22;51043;52.406;9.690;2024-02-15T04:45:09;11.80;99.90
64634;DHT22;51043;52.406;9.690;2024-02-15T04:47:40;11.80;99.90
64634;DHT22;51043;52.406;9.690;2024-02-15T04:50:09;11.80;99.90
64634;DHT22;51043;52.406;9.690;2024-02-15T04:52:40;11.80;99.90
64634;DHT22;51043;52.406;9.690;2024-02-15T04:55:13;11.80;99.90
64634;DHT22;51043;52.406;9.690;2024-02-15T04:57:43;11.80;99.90
64634;DHT22;51043;52.406;9.690;2024-02-15T05:00:13;11.80;99.90
64634;DHT22;51043;52.406;9.690;2024-02-15T05:02:43;11.80;99.90
64634;DHT22;51043;52.406;9.690;2024-02-15T05:05:11;11.70;99.90
64634;DHT22;51043;52.406;9.690;2024-02-15T05:07:40;11.80;99.90
64634;DHT22;51043;52.406;9.690;2024-02-15T05:10:09;11.80;99.90
64634;DHT22;51043;52.406;9.690;2024-02-15T05:12:38;11.70;99.90
64634;DHT22;51043;52.406;9.690;2024-02-15T05:15:07;11.70;99.90
64634;DHT22;51043;52.406;9.690;2024-02-15T05:17:40;11.80;99.90
64634;DHT22;51043;52.406;9.690;2024-02-15T05:20:09;11.80;99.90
64634;DHT22;51043;52.406;9.690;2024-02-15T05:22:41;11.80;99.90
64634;DHT22;51043;52.406;9.690;2024-02-15T05:25:14;11.80;99.90
64634;DHT22;51043;52.406;9.690;2024-02-15T05:27:42;11.80;99.90
64634;DHT22;51043;52.406;9.690;2024-02-15T05:30:12;11.70;99.90
64634;DHT22;51043;52.406;9.690;2024-02-15T05:32:42;11.70;99.90
64634;DHT22;51043;52.406;9.690;2024-02-15T05:35:12;11.60;99.90
64634;DHT22;51043;52.406;9.690;2024-02-15T05:37:40;11.60;99.90
64634;DHT22;51043;52.406;9.690;2024-02-15T05:40:08;11.60;99.90
64634;DHT22;51043;52.406;9.690;2024-02-15T05:42:42;11.60;99.90
64634;DHT22;51043;52.406;9.690;2024-02-15T05:45:29;11.60;99.90
64634;DHT22;51043;52.406;9.690;2024-02-15T05:48:03;11.60;99.90
64634;DHT22;51043;52.406;9.690;2024-02-15T05:50:34;11.60;99.90
64634;DHT22;51043;52.406;9.690;2024-02-15T05:53:04;11.70;99.90
64634;DHT22;51043;52.406;9.690;2024-02-15T05:55:35;11.70;99.90
64634;DHT22;51043;52.406;9.690;2024-02-15T05:58:04;11.70;99.90
64634;DHT22;51043;52.406;9.690;2024-02-15T06:00:32;11.70;99.90
64634;DHT22;51043;52.406;9.690;2024-02-15T06:03:02;11.70;99.90
64634;DHT22;51043;52.406;9.690;2024-02-15T06:05:31;11.70;99.90
64634;DHT22;51043;52.406;9.690;2024-02-15T06:07:59;11.60;99.90
64634;DHT22;51043;52.406;9.690;2024-02-15T06:10:27;11.60;99.90
64634;DHT22;51043;52.406;9.690;2024-02-15T06:12:57;11.60;99.90
64634;DHT22;51043;52.406;9.690;2024-02-15T06:15:28;11.70;99.90
64634;DHT22;51043;52.406;9.690;2024-02-15T06:17:57;11.70;99.90
64634;DHT22;51043;52.406;9.690;2024-02-15T06:20:27;11.80;99.90
64634;DHT22;51043;52.406;9.690;2024-02-15T06:22:57;11.80;99.90
64634;DHT22;51043;52.406;9.690;2024-02-15T06:25:26;11.80;99.90
64634;DHT22;51043;52.406;9.690;2024-02-15T06:27:54;11.80;99.90
64634;DHT22;51043;52.406;9.690;2024-02-15T06:30:28;11.80;99.90
64634;DHT22;51043;52.406;9.690;2024-02-15T06:33:14;11.80;99.90
64634;DHT22;51043;52.406;9.690;2024-02-15T06:36:05;11.90;99.90
64634;DHT22;51043;52.406;9.690;2024-02-15T06:38:51;11.90;99.90
64634;DHT22;51043;52.406;9.690;2024-02-15T06:41:36;11.80;99.90
64634;DHT22;51043;52.406;9.690;2024-02-15T06:44:04;11.80;99.90
64634;DHT22;51043;52.406;9.690;2024-02-15T06:46:33;11.80;99.90
64634;DHT22;51043;52.406;9.690;2024-02-15T06:49:01;11.80;99.90
64634;DHT22;51043;52.406;9.690;2024-02-15T06:51:31;11.90;99.90
64634;DHT22;51043;52.406;9.690;2024-02-15T06:54:00;11.90;99.90
64634;DHT22;51043;52.406;9.690;2024-02-15T06:56:28;11.90;99.90
64634;DHT22;51043;52.406;9.690;2024-02-15T06:58:57;11.90;99.90
64634;DHT22;51043;52.406;9.690;2024-02-15T07:01:26;12.00;99.90
64634;DHT22;51043;52.406;9.690;2024-02-15T07:03:55;12.00;99.90
64634;DHT22;51043;52.406;9.690;2024-02-15T07:06:25;11.90;99.90
64634;DHT22;51043;52.406;9.690;2024-02-15T07:08:55;11.90;99.90
64634;DHT22;51043;52.406;9.690;2024-02-15T07:11:27;12.00;99.90
64634;DHT22;51043;52.406;9.690;2024-02-15T07:14:01;12.00;99.90
64634;DHT22;51043;52.406;9.690;2024-02-15T07:16:31;12.00;99.90
64634;DHT22;51043;52.406;9.690;2024-02-15T07:19:02;12.10;99.90
64634;DHT22;51043;52.406;9.690;2024-02-15T07:21:31;12.00;99.90
64634;DHT22;51043;52.406;9.690;2024-02-15T07:24:01;12.00;99.90
64634;DHT22;51043;52.406;9.690;2024-02-15T07:26:29;12.00;99.90
64634;DHT22;51043;52.406;9.690;2024-02-15T07:28:57;12.00;99.90
64634;DHT22;51043;52.406;9.690;2024-02-15T07:31:28;12.00;99.90
64634;DHT22;51043;52.406;9.690;2024-02-15T07:33:56;12.00;99.90
64634;DHT22;51043;52.406;9.690;2024-02-15T07:36:29;12.00;99.90
64634;DHT22;51043;52.406;9.690;2024-02-15T07:39:02;12.00;99.90
64634;DHT22;51043;52.406;9.690;2024-02-15T07:41:31;12.00;99.90
64634;DHT22;51043;52.406;9.690;2024-02-15T07:44:00;12.10;99.90
64634;DHT22;51043;52.406;9.690;2024-02-15T07:46:29;12.00;99.90
64634;DHT22;51043;52.406;9.690;2024-02-15T07:49:00;12.00;99.90
64634;DHT22;51043;52.406;9.690;2024-02-15T07:51:29;12.00;99.90
64634;DHT22;51043;52.406;9.690;2024-02-15T07:53:57;12.10;99.90
64634;DHT22;51043;52.406;9.690;2024-02-15T07:56:29;12.10;99.90
64634;DHT22;51043;52.406;9.690;2024-02-15T07:58:58;12.20;99.90
64634;DHT22;51043;52.406;9.690;2024-02-15T08:01:26;12.20;99.90
64634;DHT22;51043;52.406;9.690;2024-02-15T08:03:56;12.30;99.90
64634;DHT22;51043;52.406;9.690;2024-02-15T08:06:25;12.30;99.90
64634;DHT22;51043;52.406;9.690;2024-02-15T08:08:55;12.30;99.90
64634;DHT22;51043;52.406;9.690;2024-02-15T08:11:23;12.30;99.90
64634;DHT22;51043;52.406;9.690;2024-02-15T08:13:54;12.40;99.90
64634;DHT22;51043;52.406;9.690;2024-02-15T08:16:26;12.40;99.90
64634;DHT22;51043;52.406;9.690;2024-02-15T08:18:55;12.50;99.90
64634;DHT22;51043;52.406;9.690;2024-02-15T08:21:27;12.60;99.90
64634;DHT22;51043;52.406;9.690;2024-02-15T08:23:56;12.60;99.90
64634;DHT22;51043;52.406;9.690;2024-02-15T08:26:28;12.60;99.90
64634;DHT22;51043;52.406;9.690;2024-02-15T08:28:58;12.70;99.90
64634;DHT22;51043;52.406;9.690;2024-02-15T08:31:29;12.70;99.90
64634;DHT22;51043;52.406;9.690;2024-02-15T08:33:58;12.70;99.90
64634;DHT22;51043;52.406;9.690;2024-02-15T08:36:29;12.90;99.90
64634;DHT22;51043;52.406;9.690;2024-02-15T08:38:57;13.10;99.90
64634;DHT22;51043;52.406;9.690;2024-02-15T08:41:27;13.40;99.90
64634;DHT22;51043;52.406;9.690;2024-02-15T08:43:57;13.60;99.90
64634;DHT22;51043;52.406;9.690;2024-02-15T08:46:31;13.80;99.90
64634;DHT22;51043;52.406;9.690;2024-02-15T08:48:59;13.70;99.90
64634;DHT22;51043;52.406;9.690;2024-02-15T08:51:30;13.70;99.90
64634;DHT22;51043;52.406;9.690;2024-02-15T08:53:59;13.70;99.90
64634;DHT22;51043;52.406;9.690;2024-02-15T08:56:30;13.60;99.90
64634;DHT22;51043;52.406;9.690;2024-02-15T08:59:03;13.50;99.90
64634;DHT22;51043;52.406;9.690;2024-02-15T09:01:31;13.50;99.90
64634;DHT22;51043;52.406;9.690;2024-02-15T09:04:01;13.40;99.90
64634;DHT22;51043;52.406;9.690;2024-02-15T09:06:31;13.50;99.90
64634;DHT22;51043;52.406;9.690;2024-02-15T09:08:59;13.50;99.90
64634;DHT22;51043;52.406;9.690;2024-02-15T09:11:30;13.50;99.90
64634;DHT22;51043;52.406;9.690;2024-02-15T09:13:59;13.50;99.90
64634;DHT22;51043;52.406;9.690;2024-02-15T09:16:30;13.50;99.90
64634;DHT22;51043;52.406;9.690;2024-02-15T09:19:04;13.60;99.90
64634;DHT22;51043;52.406;9.690;2024-02-15T09:21:33;13.70;99.90
64634;DHT22;51043;52.406;9.690;2024-02-15T09:24:01;13.80;99.90
64634;DHT22;51043;52.406;9.690;2024-02-15T09:26:30;13.80;99.90
64634;DHT22;51043;52.406;9.690;2024-02-15T09:28:59;13.80;99.90
64634;DHT22;51043;52.406;9.690;2024-02-15T09:31:30;13.80;99.90
64634;DHT22;51043;52.406;9.690;2024-02-15T09:33:58;13.80;99.90
64634;DHT22;51043;52.406;9.690;2024-02-15T09:36:28;14.00;99.90
64634;DHT22;51043;52.406;9.690;2024-02-15T09:38:57;14.20;99.90
64634;DHT22;51043;52.406;9.690;2024-02-15T09:41:26;14.20;99.90
64634;DHT22;51043;52.406;9.690;2024-02-15T09:43:55;14.10;99.90
64634;DHT22;51043;52.406;9.690;2024-02-15T09:46:23;14.10;99.90
64634;DHT22;51043;52.406;9.690;2024-02-15T09:48:56;14.00;99.90
64634;DHT22;51043;52.406;9.690;2024-02-15T09:51:26;14.00;99.90
64634;DHT22;51043;52.406;9.690;2024-02-15T09:53:56;13.90;99.90
64634;DHT22;51043;52.406;9.690;2024-02-15T09:56:26;13.90;99.90
64634;DHT22;51043;52.406;9.690;2024-02-15T09:58:55;13.80;99.90
64634;DHT22;51043;52.406;9.690;2024-02-15T10:01:23;13.70;99.90
64634;DHT22;51043;52.406;9.690;2024-02-15T10:03:55;13.60;99.90
64634;DHT22;51043;52.406;9.690;2024-02-15T10:06:26;13.60;99.90
64634;DHT22;51043;52.406;9.690;2024-02-15T10:09:23;13.60;99.90
64634;DHT22;51043;52.406;9.690;2024-02-15T10:11:57;13.50;99.90
64634;DHT22;51043;52.406;9.690;2024-02-15T10:14:26;13.50;99.90
64634;DHT22;51043;52.406;9.690;2024-02-15T10:16:56;13.40;99.90
64634;DHT22;51043;52.406;9.690;2024-02-15T10:19:26;13.40;99.90
64634;DHT22;51043;52.406;9.690;2024-02-15T10:22:06;13.30;99.90
64634;DHT22;51043;52.406;9.690;2024-02-15T10:24:35;13.40;99.90
64634;DHT22;51043;52.406;9.690;2024-02-15T10:27:04;13.30;99.90
64634;DHT22;51043;52.406;9.690;2024-02-15T10:29:34;13.20;99.90
64634;DHT22;51043;52.406;9.690;2024-02-15T10:32:04;13.00;99.90
64634;DHT22;51043;52.406;9.690;2024-02-15T10:34:46;12.80;99.90
64634;DHT22;51043;52.406;9.690;2024-02-15T10:37:15;12.60;99.90
64634;DHT22;51043;52.406;9.690;2024-02-15T10:39:46;12.50;99.90
64634;DHT22;51043;52.406;9.690;2024-02-15T10:42:16;12.40;99.90
64634;DHT22;51043;52.406;9.690;2024-02-15T10:44:45;12.40;99.90
64634;DHT22;51043;52.406;9.690;2024-02-15T10:47:14;12.30;99.90
64634;DHT22;51043;52.406;9.690;2024-02-15T10:49:43;12.30;99.90
64634;DHT22;51043;52.406;9.690;2024-02-15T10:52:13;12.30;99.90
64634;DHT22;51043;52.406;9.690;2024-02-15T10:54:47;12.30;99.90
64634;DHT22;51043;52.406;9.690;2024-02-15T10:57:20;12.20;99.90
64634;DHT22;51043;52.406;9.690;2024-02-15T10:59:55;12.20;99.90
64634;DHT22;51043;52.406;9.690;2024-02-15T11:02:29;12.20;99.90
64634;DHT22;51043;52.406;9.690;2024-02-15T11:05:05;12.30;99.90
64634;DHT22;51043;52.406;9.690;2024-02-15T11:07:37;12.40;99.90
64634;DHT22;51043;52.406;9.690;2024-02-15T11:10:06;12.50;99.90
64634;DHT22;51043;52.406;9.690;2024-02-15T11:12:35;12.50;99.90
64634;DHT22;51043;52.406;9.690;2024-02-15T11:15:09;12.60;99.90
64634;DHT22;51043;52.406;9.690;2024-02-15T11:17:46;12.60;99.90
64634;DHT22;51043;52.406;9.690;2024-02-15T11:20:52;12.60;99.90
64634;DHT22;51043;52.406;9.690;2024-02-15T11:23:26;12.50;99.90
64634;DHT22;51043;52.406;9.690;2024-02-15T11:26:00;12.40;99.90
64634;DHT22;51043;52.406;9.690;2024-02-15T11:28:39;12.40;99.90
64634;DHT22;51043;52.406;9.690;2024-02-15T11:31:09;12.40;99.90
64634;DHT22;51043;52.406;9.690;2024-02-15T11:33:39;12.60;99.90
64634;DHT22;51043;52.406;9.690;2024-02-15T11:36:10;12.50;99.90
64634;DHT22;51043;52.406;9.690;2024-02-15T11:38:39;12.60;99.90
64634;DHT22;51043;52.406;9.690;2024-02-15T11:41:11;12.60;99.90
64634;DHT22;51043;52.406;9.690;2024-02-15T11:43:47;12.70;99.90
64634;DHT22;51043;52.406;9.690;2024-02-15T11:46:17;12.70;99.90
64634;DHT22;51043;52.406;9.690;2024-02-15T11:48:46;12.80;99.90
64634;DHT22;51043;52.406;9.690;2024-02-15T11:51:26;12.80;99.90
64634;DHT22;51043;52.406;9.690;2024-02-15T11:53:59;12.90;99.90
64634;DHT22;51043;52.406;9.690;2024-02-15T11:56:28;12.90;99.90
64634;DHT22;51043;52.406;9.690;2024-02-15T11:59:04;12.90;99.90
64634;DHT22;51043;52.406;9.690;2024-02-15T12:01:33;13.00;99.90
64634;DHT22;51043;52.406;9.690;2024-02-15T12:04:19;13.10;99.90
64634;DHT22;51043;52.406;9.690;2024-02-15T12:07:06;13.20;99.90
64634;DHT22;51043;52.406;9.690;2024-02-15T12:09:58;13.30;99.90
64634;DHT22;51043;52.406;9.690;2024-02-15T12:12:50;13.30;99.90
64634;DHT22;51043;52.406;9.690;2024-02-15T12:15:36;13.30;99.90
64634;DHT22;51043;52.406;9.690;2024-02-15T12:18:23;13.30;99.90
64634;DHT22;51043;52.406;9.690;2024-02-15T12:21:10;13.30;99.90
64634;DHT22;51043;52.406;9.690;2024-02-15T12:23:41;13.20;99.90
64634;DHT22;51043;52.406;9.690;2024-02-15T12:26:10;13.20;99.90
64634;DHT22;51043;52.406;9.690;2024-02-15T12:28:41;13.10;99.90
64634;DHT22;51043;52.406;9.690;2024-02-15T12:31:11;13.00;99.90
64634;DHT22;51043;52.406;9.690;2024-02-15T12:33:41;13.00;99.90
64634;DHT22;51043;52.406;9.690;2024-02-15T12:36:09;12.90;99.90
64634;DHT22;51043;52.406;9.690;2024-02-15T12:38:37;12.90;99.90
64634;DHT22;51043;52.406;9.690;2024-02-15T12:41:22;12.90;99.90
64634;DHT22;51043;52.406;9.690;2024-02-15T12:43:52;12.90;99.90
64634;DHT22;51043;52.406;9.690;2024-02-15T12:46:20;13.00;99.90
64634;DHT22;51043;52.406;9.690;2024-02-15T12:48:49;13.00;99.90
64634;DHT22;51043;52.406;9.690;2024-02-15T12:51:19;13.00;99.90
64634;DHT22;51043;52.406;9.690;2024-02-15T12:53:48;13.10;99.90
64634;DHT22;51043;52.406;9.690;2024-02-15T12:56:21;13.10;99.90
64634;DHT22;51043;52.406;9.690;2024-02-15T12:58:51;13.10;99.90
64634;DHT22;51043;52.406;9.690;2024-02-15T13:01:19;13.10;99.90
64634;DHT22;51043;52.406;9.690;2024-02-15T13:03:47;13.10;99.90
64634;DHT22;51043;52.406;9.690;2024-02-15T13:06:16;13.10;99.90
64634;DHT22;51043;52.406;9.690;2024-02-15T13:08:45;13.20;99.90
64634;DHT22;51043;52.406;9.690;2024-02-15T13:11:15;13.30;99.90
64634;DHT22;51043;52.406;9.690;2024-02-15T13:13:45;13.30;99.90
64634;DHT22;51043;52.406;9.690;2024-02-15T13:16:13;13.40;99.90
64634;DHT22;51043;52.406;9.690;2024-02-15T13:18:42;13.50;99.90
64634;DHT22;51043;52.406;9.690;2024-02-15T13:21:12;13.50;99.90
64634;DHT22;51043;52.406;9.690;2024-02-15T13:23:40;13.60;99.90
64634;DHT22;51043;52.406;9.690;2024-02-15T13:26:08;13.70;99.90
64634;DHT22;51043;52.406;9.690;2024-02-15T13:28:40;13.80;99.90
64634;DHT22;51043;52.406;9.690;2024-02-15T13:31:12;14.00;99.90
64634;DHT22;51043;52.406;9.690;2024-02-15T13:33:40;14.00;99.90
64634;DHT22;51043;52.406;9.690;2024-02-15T13:36:09;14.20;99.90
64634;DHT22;51043;52.406;9.690;2024-02-15T13:38:37;14.40;99.90
64634;DHT22;51043;52.406;9.690;2024-02-15T13:41:06;14.60;99.90
64634;DHT22;51043;52.406;9.690;2024-02-15T13:43:37;14.70;99.90
64634;DHT22;51043;52.406;9.690;2024-02-15T13:46:09;14.80;99.90
64634;DHT22;51043;52.406;9.690;2024-02-15T13:48:39;14.80;99.90
64634;DHT22;51043;52.406;9.690;2024-02-15T13:51:08;14.80;99.90
64634;DHT22;51043;52.406;9.690;2024-02-15T13:53:37;14.70;99.90
64634;DHT22;51043;52.406;9.690;2024-02-15T13:56:06;14.70;99.90
64634;DHT22;51043;52.406;9.690;2024-02-15T13:58:37;14.60;99.90
64634;DHT22;51043;52.406;9.690;2024-02-15T14:01:05;14.50;99.90
64634;DHT22;51043;52.406;9.690;2024-02-15T14:03:34;14.60;99.90
64634;DHT22;51043;52.406;9.690;2024-02-15T14:06:04;14.60;99.90
64634;DHT22;51043;52.406;9.690;2024-02-15T14:08:32;14.60;99.90
64634;DHT22;51043;52.406;9.690;2024-02-15T14:11:01;14.70;99.90
64634;DHT22;51043;52.406;9.690;2024-02-15T14:13:29;14.80;99.90
64634;DHT22;51043;52.406;9.690;2024-02-15T14:15:58;14.90;99.90
64634;DHT22;51043;52.406;9.690;2024-02-15T14:18:31;15.00;99.90
64634;DHT22;51043;52.406;9.690;2024-02-15T14:20:59;15.10;99.90
64634;DHT22;51043;52.406;9.690;2024-02-15T14:23:29;15.20;99.90
64634;DHT22;51043;52.406;9.690;2024-02-15T14:25:57;15.20;99.90
64634;DHT22;51043;52.406;9.690;2024-02-15T14:28:28;15.00;99.90
64634;DHT22;51043;52.406;9.690;2024-02-15T14:30:57;14.90;99.90
64634;DHT22;51043;52.406;9.690;2024-02-15T14:33:42;14.80;99.90
64634;DHT22;51043;52.406;9.690;2024-02-15T14:36:11;14.70;99.90
64634;DHT22;51043;52.406;9.690;2024-02-15T14:38:43;14.70;99.90
64634;DHT22;51043;52.406;9.690;2024-02-15T14:41:14;14.60;99.90
64634;DHT22;51043;52.406;9.690;2024-02-15T14:43:49;14.50;99.90
64634;DHT22;51043;52.406;9.690;2024-02-15T14:46:17;14.40;99.90
64634;DHT22;51043;52.406;9.690;2024-02-15T14:48:45;14.30;99.90
64634;DHT22;51043;52.406;9.690;2024-02-15T14:51:15;14.20;99.90
64634;DHT22;51043;52.406;9.690;2024-02-15T14:53:46;14.10;99.90
64634;DHT22;51043;52.406;9.690;2024-02-15T14:56:15;14.00;99.90
64634;DHT22;51043;52.406;9.690;2024-02-15T14:58:44;13.90;99.90
64634;DHT22;51043;52.406;9.690;2024-02-15T15:01:13;13.80;99.90
64634;DHT22;51043;52.406;9.690;2024-02-15T15:03:41;13.80;99.90
64634;DHT22;51043;52.406;9.690;2024-02-15T15:06:10;13.80;99.90
64634;DHT22;51043;52.406;9.690;2024-02-15T15:08:57;13.80;99.90
64634;DHT22;51043;52.406;9.690;2024-02-15T15:11:43;13.80;99.90
64634;DHT22;51043;52.406;9.690;2024-02-15T15:14:29;13.80;99.90
64634;DHT22;51043;52.406;9.690;2024-02-15T15:16:57;13.80;99.90
64634;DHT22;51043;52.406;9.690;2024-02-15T15:19:27;13.80;99.90
64634;DHT22;51043;52.406;9.690;2024-02-15T15:21:55;13.80;99.90
64634;DHT22;51043;52.406;9.690;2024-02-15T15:24:25;13.70;99.90
64634;DHT22;51043;52.406;9.690;2024-02-15T15:26:53;13.60;99.90
64634;DHT22;51043;52.406;9.690;2024-02-15T15:29:23;13.60;99.90
64634;DHT22;51043;52.406;9.690;2024-02-15T15:31:52;13.60;99.90
64634;DHT22;51043;52.406;9.690;2024-02-15T15:34:20;13.60;99.90
64634;DHT22;51043;52.406;9.690;2024-02-15T15:36:50;13.50;99.90
64634;DHT22;51043;52.406;9.690;2024-02-15T15:39:21;13.40;99.90
64634;DHT22;51043;52.406;9.690;2024-02-15T15:41:52;13.40;99.90
64634;DHT22;51043;52.406;9.690;2024-02-15T15:44:21;13.40;99.90
64634;DHT22;51043;52.406;9.690;2024-02-15T15:46:55;13.40;99.90
64634;DHT22;51043;52.406;9.690;2024-02-15T15:49:24;13.40;99.90
64634;DHT22;51043;52.406;9.690;2024-02-15T15:51:53;13.30;99.90